sensor_id;sensor_type;location;lat;lon;timestamp;P1;durP1;ratioP1;P2;durP2;ratioP2
37341;SDS011;58643;49.052;8.518;2022-09-09T00:01:08;8.95;;;1.73;;
37341;SDS011;58643;49.052;8.518;2022-09-09T00:07:03;7.57;;;1.70;;
37341;SDS011;58643;49.052;8.518;2022-09-09T00:15:14;5.43;;;1.60;;
37341;SDS011;58643;49.052;8.518;2022-09-09T00:20:32;4.97;;;1.90;;
37341;SDS011;58643;49.052;8.518;2022-09-09T00:23:16;5.35;;;1.85;;
37341;SDS011;58643;49.052;8.518;2022-09-09T00:25:58;8.63;;;1.60;;
37341;SDS011;58643;49.052;8.518;2022-09-09T00:28:28;4.53;;;1.60;;
37341;SDS011;58643;49.052;8.518;2022-09-09T00:30:59;8.60;;;2.30;;
37341;SDS011;58643;49.052;8.518;2022-09-09T00:33:33;7.90;;;2.08;;
37341;SDS011;58643;49.052;8.518;2022-09-09T00:35:59;8.98;;;1.70;;
37341;SDS011;58643;49.052;8.518;2022-09-09T00:41:09;6.10;;;2.40;;
37341;SDS011;58643;49.052;8.518;2022-09-09T00:43:40;14.05;;;2.25;;
37341;SDS011;58643;49.052;8.518;2022-09-09T00:46:21;6.65;;;2.17;;
37341;SDS011;58643;49.052;8.518;2022-09-09T00:57:40;5.30;;;1.83;;
37341;SDS011;58643;49.052;8.518;2022-09-09T01:05:27;11.20;;;1.90;;
37341;SDS011;58643;49.052;8.518;2022-09-09T01:07:57;8.18;;;2.10;;
37341;SDS011;58643;49.052;8.518;2022-09-09T01:10:40;5.43;;;1.80;;
37341;SDS011;58643;49.052;8.518;2022-09-09T01:13:20;6.50;;;1.90;;
37341;SDS011;58643;49.052;8.518;2022-09-09T01:15:55;6.53;;;2.20;;
37341;SDS011;58643;49.052;8.518;2022-09-09T01:23:30;5.80;;;1.85;;
37341;SDS011;58643;49.052;8.518;2022-09-09T01:26:18;3.33;;;1.88;;
37341;SDS011;58643;49.052;8.518;2022-09-09T01:28:53;8.77;;;2.10;;
37341;SDS011;58643;49.052;8.518;2022-09-09T01:34:17;10.65;;;1.80;;
37341;SDS011;58643;49.052;8.518;2022-09-09T01:36:47;7.22;;;1.88;;
37341;SDS011;58643;49.052;8.518;2022-09-09T01:39:27;5.25;;;1.40;;
37341;SDS011;58643;49.052;8.518;2022-09-09T01:41:53;6.80;;;1.60;;
37341;SDS011;58643;49.052;8.518;2022-09-09T01:44:20;8.35;;;1.58;;
37341;SDS011;58643;49.052;8.518;2022-09-09T01:46:47;6.70;;;1.63;;
37341;SDS011;58643;49.052;8.518;2022-09-09T01:49:12;6.63;;;1.40;;
37341;SDS011;58643;49.052;8.518;2022-09-09T01:51:38;7.35;;;1.52;;
37341;SDS011;58643;49.052;8.518;2022-09-09T01:54:05;8.68;;;1.23;;
37341;SDS011;58643;49.052;8.518;2022-09-09T02:01:56;6.80;;;1.35;;
37341;SDS011;58643;49.052;8.518;2022-09-09T02:04:42;8.05;;;1.33;;
37341;SDS011;58643;49.052;8.518;2022-09-09T02:07:22;6.35;;;1.40;;
37341;SDS011;58643;49.052;8.518;2022-09-09T02:10:23;4.78;;;1.20;;
37341;SDS011;58643;49.052;8.518;2022-09-09T02:13:11;4.65;;;1.35;;
37341;SDS011;58643;49.052;8.518;2022-09-09T02:15:43;6.38;;;1.60;;
37341;SDS011;58643;49.052;8.518;2022-09-09T02:18:15;5.45;;;1.25;;
37341;SDS011;58643;49.052;8.518;2022-09-09T02:20:49;4.97;;;1.50;;
37341;SDS011;58643;49.052;8.518;2022-09-09T02:23:16;5.82;;;1.10;;
37341;SDS011;58643;49.052;8.518;2022-09-09T02:25:42;5.85;;;1.10;;
37341;SDS011;58643;49.052;8.518;2022-09-09T02:28:11;4.88;;;1.20;;
37341;SDS011;58643;49.052;8.518;2022-09-09T02:30:39;4.07;;;1.10;;
37341;SDS011;58643;49.052;8.518;2022-09-09T02:33:07;6.40;;;1.02;;
37341;SDS011;58643;49.052;8.518;2022-09-09T02:35:35;2.33;;;0.70;;
37341;SDS011;58643;49.052;8.518;2022-09-09T02:38:03;1.42;;;0.60;;
37341;SDS011;58643;49.052;8.518;2022-09-09T02:42:57;2.17;;;1.10;;
37341;SDS011;58643;49.052;8.518;2022-09-09T02:45:25;4.25;;;0.90;;
37341;SDS011;58643;49.052;8.518;2022-09-09T02:47:59;4.32;;;0.82;;
37341;SDS011;58643;49.052;8.518;2022-09-09T02:50:35;3.95;;;1.00;;
37341;SDS011;58643;49.052;8.518;2022-09-09T02:55:59;4.90;;;1.08;;
37341;SDS011;58643;49.052;8.518;2022-09-09T02:58:30;5.22;;;0.88;;
37341;SDS011;58643;49.052;8.518;2022-09-09T03:00:56;4.13;;;0.95;;
37341;SDS011;58643;49.052;8.518;2022-09-09T03:03:23;4.32;;;0.73;;
37341;SDS011;58643;49.052;8.518;2022-09-09T03:05:49;3.95;;;0.80;;
37341;SDS011;58643;49.052;8.518;2022-09-09T03:08:15;4.15;;;0.98;;
37341;SDS011;58643;49.052;8.518;2022-09-09T03:10:42;5.13;;;0.90;;
37341;SDS011;58643;49.052;8.518;2022-09-09T03:13:07;4.15;;;1.10;;
37341;SDS011;58643;49.052;8.518;2022-09-09T03:15:34;3.20;;;0.73;;
37341;SDS011;58643;49.052;8.518;2022-09-09T03:18:00;4.25;;;0.85;;
37341;SDS011;58643;49.052;8.518;2022-09-09T03:20:26;2.55;;;0.90;;
37341;SDS011;58643;49.052;8.518;2022-09-09T03:22:53;3.08;;;0.77;;
37341;SDS011;58643;49.052;8.518;2022-09-09T03:25:19;3.13;;;0.88;;
37341;SDS011;58643;49.052;8.518;2022-09-09T03:27:45;3.53;;;0.90;;
37341;SDS011;58643;49.052;8.518;2022-09-09T03:30:10;3.15;;;0.93;;
37341;SDS011;58643;49.052;8.518;2022-09-09T03:32:36;2.47;;;0.70;;
37341;SDS011;58643;49.052;8.518;2022-09-09T03:35:02;2.97;;;0.80;;
37341;SDS011;58643;49.052;8.518;2022-09-09T03:37:28;4.65;;;0.88;;
37341;SDS011;58643;49.052;8.518;2022-09-09T03:39:54;5.35;;;1.10;;
37341;SDS011;58643;49.052;8.518;2022-09-09T03:42:19;2.60;;;1.00;;
37341;SDS011;58643;49.052;8.518;2022-09-09T03:44:45;2.38;;;0.88;;
37341;SDS011;58643;49.052;8.518;2022-09-09T03:47:19;5.55;;;1.00;;
37341;SDS011;58643;49.052;8.518;2022-09-09T03:49:46;4.45;;;0.82;;
37341;SDS011;58643;49.052;8.518;2022-09-09T03:52:13;2.15;;;0.98;;
37341;SDS011;58643;49.052;8.518;2022-09-09T03:54:39;5.78;;;1.00;;
37341;SDS011;58643;49.052;8.518;2022-09-09T03:57:06;1.73;;;0.68;;
37341;SDS011;58643;49.052;8.518;2022-09-09T03:59:31;2.60;;;0.70;;
37341;SDS011;58643;49.052;8.518;2022-09-09T04:01:57;3.38;;;0.75;;
37341;SDS011;58643;49.052;8.518;2022-09-09T04:04:24;4.75;;;1.08;;
37341;SDS011;58643;49.052;8.518;2022-09-09T04:06:51;10.13;;;1.30;;
37341;SDS011;58643;49.052;8.518;2022-09-09T04:09:16;7.80;;;0.90;;
37341;SDS011;58643;49.052;8.518;2022-09-09T04:11:42;4.50;;;0.93;;
37341;SDS011;58643;49.052;8.518;2022-09-09T04:14:08;3.03;;;1.00;;
37341;SDS011;58643;49.052;8.518;2022-09-09T04:16:34;2.67;;;0.90;;
37341;SDS011;58643;49.052;8.518;2022-09-09T04:19:02;3.47;;;1.60;;
37341;SDS011;58643;49.052;8.518;2022-09-09T04:21:29;5.50;;;1.20;;
37341;SDS011;58643;49.052;8.518;2022-09-09T04:23:55;4.10;;;1.00;;
37341;SDS011;58643;49.052;8.518;2022-09-09T04:26:20;3.65;;;1.10;;
37341;SDS011;58643;49.052;8.518;2022-09-09T04:28:46;5.43;;;1.30;;
37341;SDS011;58643;49.052;8.518;2022-09-09T04:31:16;3.83;;;0.95;;
37341;SDS011;58643;49.052;8.518;2022-09-09T04:33:48;6.20;;;1.10;;
37341;SDS011;58643;49.052;8.518;2022-09-09T04:36:14;7.03;;;1.10;;
37341;SDS011;58643;49.052;8.518;2022-09-09T04:38:40;3.88;;;1.10;;
37341;SDS011;58643;49.052;8.518;2022-09-09T04:41:05;5.32;;;0.80;;
37341;SDS011;58643;49.052;8.518;2022-09-09T04:43:32;3.15;;;0.82;;
37341;SDS011;58643;49.052;8.518;2022-09-09T04:45:58;4.95;;;0.95;;
37341;SDS011;58643;49.052;8.518;2022-09-09T04:48:26;2.60;;;0.77;;
37341;SDS011;58643;49.052;8.518;2022-09-09T04:50:59;5.43;;;0.80;;
37341;SDS011;58643;49.052;8.518;2022-09-09T04:53:34;3.10;;;0.75;;
37341;SDS011;58643;49.052;8.518;2022-09-09T04:56:04;7.35;;;0.98;;
37341;SDS011;58643;49.052;8.518;2022-09-09T04:58:31;3.17;;;0.73;;
37341;SDS011;58643;49.052;8.518;2022-09-09T05:01:13;1.73;;;0.60;;
37341;SDS011;58643;49.052;8.518;2022-09-09T05:03:42;3.60;;;0.80;;
37341;SDS011;58643;49.052;8.518;2022-09-09T05:06:11;3.28;;;0.88;;
37341;SDS011;58643;49.052;8.518;2022-09-09T05:08:41;6.05;;;0.80;;
37341;SDS011;58643;49.052;8.518;2022-09-09T05:11:18;4.35;;;0.85;;
37341;SDS011;58643;49.052;8.518;2022-09-09T05:13:45;7.20;;;0.85;;
37341;SDS011;58643;49.052;8.518;2022-09-09T05:16:12;6.80;;;0.75;;
37341;SDS011;58643;49.052;8.518;2022-09-09T05:18:39;3.13;;;1.15;;
37341;SDS011;58643;49.052;8.518;2022-09-09T05:21:05;6.90;;;1.23;;
37341;SDS011;58643;49.052;8.518;2022-09-09T05:23:32;6.15;;;0.70;;
37341;SDS011;58643;49.052;8.518;2022-09-09T05:25:59;3.92;;;0.60;;
37341;SDS011;58643;49.052;8.518;2022-09-09T05:28:25;4.70;;;0.80;;
37341;SDS011;58643;49.052;8.518;2022-09-09T05:30:55;3.83;;;0.75;;
37341;SDS011;58643;49.052;8.518;2022-09-09T05:33:26;4.97;;;0.93;;
37341;SDS011;58643;49.052;8.518;2022-09-09T05:35:59;5.00;;;0.82;;
37341;SDS011;58643;49.052;8.518;2022-09-09T05:38:45;2.08;;;0.80;;
37341;SDS011;58643;49.052;8.518;2022-09-09T05:41:11;3.60;;;0.80;;
37341;SDS011;58643;49.052;8.518;2022-09-09T05:43:37;1.58;;;0.68;;
37341;SDS011;58643;49.052;8.518;2022-09-09T05:46:07;3.67;;;0.90;;
37341;SDS011;58643;49.052;8.518;2022-09-09T05:48:35;3.40;;;0.70;;
37341;SDS011;58643;49.052;8.518;2022-09-09T05:51:02;3.33;;;0.90;;
37341;SDS011;58643;49.052;8.518;2022-09-09T05:53:29;3.30;;;0.77;;
37341;SDS011;58643;49.052;8.518;2022-09-09T05:56:00;4.57;;;0.90;;
37341;SDS011;58643;49.052;8.518;2022-09-09T05:58:26;4.47;;;0.85;;
37341;SDS011;58643;49.052;8.518;2022-09-09T06:00:52;4.65;;;0.80;;
37341;SDS011;58643;49.052;8.518;2022-09-09T06:03:19;2.13;;;0.70;;
37341;SDS011;58643;49.052;8.518;2022-09-09T06:08:21;2.65;;;0.68;;
37341;SDS011;58643;49.052;8.518;2022-09-09T06:10:47;2.50;;;0.90;;
37341;SDS011;58643;49.052;8.518;2022-09-09T06:13:12;3.78;;;0.75;;
37341;SDS011;58643;49.052;8.518;2022-09-09T06:15:38;2.50;;;0.70;;
37341;SDS011;58643;49.052;8.518;2022-09-09T06:18:03;6.53;;;1.00;;
37341;SDS011;58643;49.052;8.518;2022-09-09T06:20:29;4.10;;;0.68;;
37341;SDS011;58643;49.052;8.518;2022-09-09T06:22:56;5.97;;;1.02;;
37341;SDS011;58643;49.052;8.518;2022-09-09T06:25:22;11.55;;;1.10;;
37341;SDS011;58643;49.052;8.518;2022-09-09T06:27:49;6.45;;;1.17;;
37341;SDS011;58643;49.052;8.518;2022-09-09T06:30:14;5.07;;;0.90;;
37341;SDS011;58643;49.052;8.518;2022-09-09T06:32:42;3.20;;;0.82;;
37341;SDS011;58643;49.052;8.518;2022-09-09T06:35:07;3.22;;;0.80;;
37341;SDS011;58643;49.052;8.518;2022-09-09T06:37:33;5.00;;;1.40;;
37341;SDS011;58643;49.052;8.518;2022-09-09T06:39:59;4.55;;;0.88;;
37341;SDS011;58643;49.052;8.518;2022-09-09T06:42:24;7.35;;;1.00;;
37341;SDS011;58643;49.052;8.518;2022-09-09T06:44:50;4.47;;;1.02;;
37341;SDS011;58643;49.052;8.518;2022-09-09T06:47:15;4.53;;;0.95;;
37341;SDS011;58643;49.052;8.518;2022-09-09T06:49:41;4.72;;;1.00;;
37341;SDS011;58643;49.052;8.518;2022-09-09T06:52:08;4.60;;;0.95;;
37341;SDS011;58643;49.052;8.518;2022-09-09T06:54:34;2.13;;;0.80;;
37341;SDS011;58643;49.052;8.518;2022-09-09T06:57:02;3.95;;;0.80;;
37341;SDS011;58643;49.052;8.518;2022-09-09T06:59:28;3.88;;;0.93;;
37341;SDS011;58643;49.052;8.518;2022-09-09T07:01:55;6.35;;;0.95;;
37341;SDS011;58643;49.052;8.518;2022-09-09T07:04:21;9.10;;;1.20;;
37341;SDS011;58643;49.052;8.518;2022-09-09T07:06:47;6.95;;;1.00;;
37341;SDS011;58643;49.052;8.518;2022-09-09T07:09:13;4.03;;;1.27;;
37341;SDS011;58643;49.052;8.518;2022-09-09T07:11:42;9.10;;;1.42;;
37341;SDS011;58643;49.052;8.518;2022-09-09T07:14:09;8.75;;;1.33;;
37341;SDS011;58643;49.052;8.518;2022-09-09T07:19:05;5.07;;;1.00;;
37341;SDS011;58643;49.052;8.518;2022-09-09T07:21:31;6.20;;;1.23;;
37341;SDS011;58643;49.052;8.518;2022-09-09T07:23:58;7.60;;;1.20;;
37341;SDS011;58643;49.052;8.518;2022-09-09T07:26:25;3.75;;;1.00;;
37341;SDS011;58643;49.052;8.518;2022-09-09T07:28:53;5.60;;;1.35;;
37341;SDS011;58643;49.052;8.518;2022-09-09T07:31:31;7.38;;;1.23;;
37341;SDS011;58643;49.052;8.518;2022-09-09T07:34:00;4.68;;;1.15;;
37341;SDS011;58643;49.052;8.518;2022-09-09T07:36:26;3.72;;;0.98;;
37341;SDS011;58643;49.052;8.518;2022-09-09T07:39:01;7.90;;;1.23;;
37341;SDS011;58643;49.052;8.518;2022-09-09T07:41:31;6.22;;;1.38;;
37341;SDS011;58643;49.052;8.518;2022-09-09T07:44:06;3.22;;;0.95;;
37341;SDS011;58643;49.052;8.518;2022-09-09T07:46:36;8.00;;;1.60;;
37341;SDS011;58643;49.052;8.518;2022-09-09T07:49:04;3.53;;;1.05;;
37341;SDS011;58643;49.052;8.518;2022-09-09T07:51:31;6.47;;;1.77;;
37341;SDS011;58643;49.052;8.518;2022-09-09T07:54:00;5.50;;;1.13;;
37341;SDS011;58643;49.052;8.518;2022-09-09T07:56:28;9.38;;;1.55;;
37341;SDS011;58643;49.052;8.518;2022-09-09T07:58:55;5.20;;;0.93;;
37341;SDS011;58643;49.052;8.518;2022-09-09T08:03:58;6.13;;;1.25;;
37341;SDS011;58643;49.052;8.518;2022-09-09T08:06:30;4.88;;;1.23;;
37341;SDS011;58643;49.052;8.518;2022-09-09T08:09:00;2.53;;;0.90;;
37341;SDS011;58643;49.052;8.518;2022-09-09T08:11:27;5.78;;;1.10;;
37341;SDS011;58643;49.052;8.518;2022-09-09T08:13:54;7.43;;;1.17;;
37341;SDS011;58643;49.052;8.518;2022-09-09T08:16:25;3.22;;;1.00;;
37341;SDS011;58643;49.052;8.518;2022-09-09T08:18:53;3.92;;;0.98;;
37341;SDS011;58643;49.052;8.518;2022-09-09T08:21:21;3.92;;;1.00;;
37341;SDS011;58643;49.052;8.518;2022-09-09T08:23:55;2.30;;;0.73;;
37341;SDS011;58643;49.052;8.518;2022-09-09T08:26:25;4.55;;;0.77;;
37341;SDS011;58643;49.052;8.518;2022-09-09T08:28:56;7.93;;;1.15;;
37341;SDS011;58643;49.052;8.518;2022-09-09T08:31:23;9.95;;;1.20;;
37341;SDS011;58643;49.052;8.518;2022-09-09T08:33:58;5.88;;;0.90;;
37341;SDS011;58643;49.052;8.518;2022-09-09T08:36:25;1.88;;;0.80;;
37341;SDS011;58643;49.052;8.518;2022-09-09T08:38:54;7.47;;;1.10;;
37341;SDS011;58643;49.052;8.518;2022-09-09T08:52:18;6.53;;;0.82;;
37341;SDS011;58643;49.052;8.518;2022-09-09T08:54:47;4.70;;;0.93;;
37341;SDS011;58643;49.052;8.518;2022-09-09T08:57:14;5.15;;;0.85;;
37341;SDS011;58643;49.052;8.518;2022-09-09T09:02:38;6.65;;;1.90;;
37341;SDS011;58643;49.052;8.518;2022-09-09T09:05:33;4.40;;;1.00;;
37341;SDS011;58643;49.052;8.518;2022-09-09T09:08:19;5.28;;;1.10;;
37341;SDS011;58643;49.052;8.518;2022-09-09T09:11:02;5.65;;;0.93;;
37341;SDS011;58643;49.052;8.518;2022-09-09T09:18:54;7.43;;;1.20;;
37341;SDS011;58643;49.052;8.518;2022-09-09T09:24:18;7.72;;;1.25;;
37341;SDS011;58643;49.052;8.518;2022-09-09T09:26:57;5.03;;;2.60;;
37341;SDS011;58643;49.052;8.518;2022-09-09T09:29:26;3.40;;;0.90;;
37341;SDS011;58643;49.052;8.518;2022-09-09T09:31:52;4.80;;;1.10;;
37341;SDS011;58643;49.052;8.518;2022-09-09T09:34:20;8.13;;;1.08;;
37341;SDS011;58643;49.052;8.518;2022-09-09T09:36:57;4.88;;;0.65;;
37341;SDS011;58643;49.052;8.518;2022-09-09T09:39:29;3.72;;;0.73;;
37341;SDS011;58643;49.052;8.518;2022-09-09T09:41:56;6.97;;;0.88;;
37341;SDS011;58643;49.052;8.518;2022-09-09T09:47:04;2.50;;;0.70;;
37341;SDS011;58643;49.052;8.518;2022-09-09T09:49:35;3.08;;;0.80;;
37341;SDS011;58643;49.052;8.518;2022-09-09T09:52:04;4.35;;;0.88;;
37341;SDS011;58643;49.052;8.518;2022-09-09T09:54:41;3.67;;;0.77;;
37341;SDS011;58643;49.052;8.518;2022-09-09T09:57:11;3.25;;;1.48;;
37341;SDS011;58643;49.052;8.518;2022-09-09T09:59:38;4.05;;;0.90;;
37341;SDS011;58643;49.052;8.518;2022-09-09T10:02:18;4.60;;;0.82;;
37341;SDS011;58643;49.052;8.518;2022-09-09T10:04:48;4.80;;;1.02;;
37341;SDS011;58643;49.052;8.518;2022-09-09T10:07:18;4.80;;;0.95;;
37341;SDS011;58643;49.052;8.518;2022-09-09T10:09:46;6.18;;;0.88;;
37341;SDS011;58643;49.052;8.518;2022-09-09T10:12:22;5.15;;;1.05;;
37341;SDS011;58643;49.052;8.518;2022-09-09T10:17:54;2.83;;;0.80;;
37341;SDS011;58643;49.052;8.518;2022-09-09T10:26:44;5.25;;;0.98;;
37341;SDS011;58643;49.052;8.518;2022-09-09T10:32:08;3.38;;;1.10;;
37341;SDS011;58643;49.052;8.518;2022-09-09T10:35:08;4.55;;;1.10;;
37341;SDS011;58643;49.052;8.518;2022-09-09T10:46:08;5.47;;;0.88;;
37341;SDS011;58643;49.052;8.518;2022-09-09T10:49:06;6.57;;;0.93;;
37341;SDS011;58643;49.052;8.518;2022-09-09T10:52:05;4.78;;;1.08;;
37341;SDS011;58643;49.052;8.518;2022-09-09T10:57:44;7.47;;;1.30;;
37341;SDS011;58643;49.052;8.518;2022-09-09T11:00:17;4.95;;;1.20;;
37341;SDS011;58643;49.052;8.518;2022-09-09T11:02:57;3.95;;;0.88;;
37341;SDS011;58643;49.052;8.518;2022-09-09T11:05:29;4.88;;;0.85;;
37341;SDS011;58643;49.052;8.518;2022-09-09T11:10:52;3.90;;;0.90;;
37341;SDS011;58643;49.052;8.518;2022-09-09T11:13:24;3.40;;;0.90;;
37341;SDS011;58643;49.052;8.518;2022-09-09T11:16:00;3.65;;;0.70;;
37341;SDS011;58643;49.052;8.518;2022-09-09T11:18:30;3.78;;;0.90;;
37341;SDS011;58643;49.052;8.518;2022-09-09T11:21:02;2.58;;;0.70;;
37341;SDS011;58643;49.052;8.518;2022-09-09T11:26:04;5.45;;;0.75;;
37341;SDS011;58643;49.052;8.518;2022-09-09T11:34:24;4.03;;;1.02;;
37341;SDS011;58643;49.052;8.518;2022-09-09T11:37:07;4.15;;;0.90;;
37341;SDS011;58643;49.052;8.518;2022-09-09T11:39:55;3.55;;;0.80;;
37341;SDS011;58643;49.052;8.518;2022-09-09T11:42:26;8.20;;;0.93;;
37341;SDS011;58643;49.052;8.518;2022-09-09T11:44:51;3.55;;;0.98;;
37341;SDS011;58643;49.052;8.518;2022-09-09T11:47:28;3.05;;;0.90;;
37341;SDS011;58643;49.052;8.518;2022-09-09T11:50:06;3.20;;;0.70;;
37341;SDS011;58643;49.052;8.518;2022-09-09T11:53:03;5.43;;;1.00;;
37341;SDS011;58643;49.052;8.518;2022-09-09T11:55:41;5.85;;;0.85;;
37341;SDS011;58643;49.052;8.518;2022-09-09T12:03:03;2.92;;;0.70;;
37341;SDS011;58643;49.052;8.518;2022-09-09T12:05:37;3.75;;;0.98;;
37341;SDS011;58643;49.052;8.518;2022-09-09T12:08:05;4.82;;;0.82;;
37341;SDS011;58643;49.052;8.518;2022-09-09T12:10:36;7.13;;;1.17;;
37341;SDS011;58643;49.052;8.518;2022-09-09T12:13:13;5.95;;;1.00;;
37341;SDS011;58643;49.052;8.518;2022-09-09T12:15:49;4.03;;;0.98;;
37341;SDS011;58643;49.052;8.518;2022-09-09T12:18:31;4.25;;;1.30;;
37341;SDS011;58643;49.052;8.518;2022-09-09T12:21:02;5.70;;;0.90;;
37341;SDS011;58643;49.052;8.518;2022-09-09T12:23:37;5.00;;;1.20;;
37341;SDS011;58643;49.052;8.518;2022-09-09T12:35:00;5.25;;;1.00;;
37341;SDS011;58643;49.052;8.518;2022-09-09T12:36:59;4.60;;;1.13;;
37341;SDS011;58643;49.052;8.518;2022-09-09T12:39:34;5.15;;;1.00;;
37341;SDS011;58643;49.052;8.518;2022-09-09T12:42:03;1.75;;;0.77;;
37341;SDS011;58643;49.052;8.518;2022-09-09T12:44:29;1.90;;;0.85;;
37341;SDS011;58643;49.052;8.518;2022-09-09T12:46:56;3.90;;;0.80;;
37341;SDS011;58643;49.052;8.518;2022-09-09T12:49:29;2.30;;;0.85;;
37341;SDS011;58643;49.052;8.518;2022-09-09T12:52:14;3.17;;;0.80;;
37341;SDS011;58643;49.052;8.518;2022-09-09T12:55:00;5.50;;;1.10;;
37341;SDS011;58643;49.052;8.518;2022-09-09T12:57:31;3.00;;;0.82;;
37341;SDS011;58643;49.052;8.518;2022-09-09T13:00:10;7.00;;;1.00;;
37341;SDS011;58643;49.052;8.518;2022-09-09T13:03:15;4.65;;;1.00;;
37341;SDS011;58643;49.052;8.518;2022-09-09T13:05:52;4.50;;;1.10;;
37341;SDS011;58643;49.052;8.518;2022-09-09T13:08:19;5.15;;;0.98;;
37341;SDS011;58643;49.052;8.518;2022-09-09T13:13:33;2.45;;;0.60;;
37341;SDS011;58643;49.052;8.518;2022-09-09T13:16:01;4.53;;;0.70;;
37341;SDS011;58643;49.052;8.518;2022-09-09T13:18:30;5.22;;;0.80;;
37341;SDS011;58643;49.052;8.518;2022-09-09T13:20:58;3.33;;;0.73;;
37341;SDS011;58643;49.052;8.518;2022-09-09T13:23:31;3.20;;;0.70;;
37341;SDS011;58643;49.052;8.518;2022-09-09T13:26:00;4.95;;;1.08;;
37341;SDS011;58643;49.052;8.518;2022-09-09T13:28:47;3.45;;;0.90;;
37341;SDS011;58643;49.052;8.518;2022-09-09T13:31:20;6.13;;;1.20;;
37341;SDS011;58643;49.052;8.518;2022-09-09T13:33:57;5.05;;;1.30;;
37341;SDS011;58643;49.052;8.518;2022-09-09T13:36:27;8.45;;;1.20;;
37341;SDS011;58643;49.052;8.518;2022-09-09T13:38:56;6.60;;;1.00;;
37341;SDS011;58643;49.052;8.518;2022-09-09T13:41:25;3.42;;;0.90;;
37341;SDS011;58643;49.052;8.518;2022-09-09T13:43:58;5.57;;;1.13;;
37341;SDS011;58643;49.052;8.518;2022-09-09T13:46:37;7.07;;;1.20;;
37341;SDS011;58643;49.052;8.518;2022-09-09T13:54:12;3.10;;;1.00;;
37341;SDS011;58643;49.052;8.518;2022-09-09T13:56:39;3.50;;;0.90;;
37341;SDS011;58643;49.052;8.518;2022-09-09T13:59:09;5.35;;;0.70;;
37341;SDS011;58643;49.052;8.518;2022-09-09T14:01:37;4.18;;;0.73;;
37341;SDS011;58643;49.052;8.518;2022-09-09T14:04:03;4.28;;;0.95;;
37341;SDS011;58643;49.052;8.518;2022-09-09T14:06:31;3.93;;;1.00;;
37341;SDS011;58643;49.052;8.518;2022-09-09T14:08:57;3.60;;;0.90;;
37341;SDS011;58643;49.052;8.518;2022-09-09T14:11:23;4.90;;;1.05;;
37341;SDS011;58643;49.052;8.518;2022-09-09T14:13:49;3.47;;;0.88;;
37341;SDS011;58643;49.052;8.518;2022-09-09T14:16:16;3.53;;;0.93;;
37341;SDS011;58643;49.052;8.518;2022-09-09T14:18:42;4.70;;;1.10;;
37341;SDS011;58643;49.052;8.518;2022-09-09T14:21:11;4.47;;;1.00;;
37341;SDS011;58643;49.052;8.518;2022-09-09T14:23:37;4.78;;;1.15;;
37341;SDS011;58643;49.052;8.518;2022-09-09T14:26:06;7.65;;;0.90;;
37341;SDS011;58643;49.052;8.518;2022-09-09T14:28:33;8.25;;;1.40;;
37341;SDS011;58643;49.052;8.518;2022-09-09T14:31:00;6.85;;;1.15;;
37341;SDS011;58643;49.052;8.518;2022-09-09T14:33:26;11.15;;;1.65;;
37341;SDS011;58643;49.052;8.518;2022-09-09T14:38:24;22.95;;;1.90;;
37341;SDS011;58643;49.052;8.518;2022-09-09T14:40:53;11.95;;;2.25;;
37341;SDS011;58643;49.052;8.518;2022-09-09T14:43:18;6.95;;;1.30;;
37341;SDS011;58643;49.052;8.518;2022-09-09T14:45:45;4.38;;;1.00;;
37341;SDS011;58643;49.052;8.518;2022-09-09T14:48:12;4.68;;;1.05;;
37341;SDS011;58643;49.052;8.518;2022-09-09T14:50:39;6.53;;;1.30;;
37341;SDS011;58643;49.052;8.518;2022-09-09T14:53:05;6.07;;;1.10;;
37341;SDS011;58643;49.052;8.518;2022-09-09T14:55:32;8.18;;;1.38;;
37341;SDS011;58643;49.052;8.518;2022-09-09T14:57:58;9.57;;;2.03;;
37341;SDS011;58643;49.052;8.518;2022-09-09T15:00:23;6.97;;;1.67;;
37341;SDS011;58643;49.052;8.518;2022-09-09T15:02:52;8.80;;;1.70;;
37341;SDS011;58643;49.052;8.518;2022-09-09T15:05:18;9.20;;;1.60;;
37341;SDS011;58643;49.052;8.518;2022-09-09T15:07:44;16.55;;;2.53;;
37341;SDS011;58643;49.052;8.518;2022-09-09T15:10:10;5.70;;;1.67;;
37341;SDS011;58643;49.052;8.518;2022-09-09T15:12:36;5.70;;;1.38;;
37341;SDS011;58643;49.052;8.518;2022-09-09T15:15:03;7.50;;;1.50;;
37341;SDS011;58643;49.052;8.518;2022-09-09T15:17:29;6.28;;;1.20;;
37341;SDS011;58643;49.052;8.518;2022-09-09T15:19:55;7.32;;;1.60;;
37341;SDS011;58643;49.052;8.518;2022-09-09T15:22:21;8.02;;;1.25;;
37341;SDS011;58643;49.052;8.518;2022-09-09T15:24:47;7.07;;;1.30;;
37341;SDS011;58643;49.052;8.518;2022-09-09T15:27:12;7.43;;;1.60;;
37341;SDS011;58643;49.052;8.518;2022-09-09T15:29:39;7.43;;;1.40;;
37341;SDS011;58643;49.052;8.518;2022-09-09T15:32:05;5.28;;;1.10;;
37341;SDS011;58643;49.052;8.518;2022-09-09T15:34:31;8.90;;;1.17;;
37341;SDS011;58643;49.052;8.518;2022-09-09T15:36:57;6.82;;;1.08;;
37341;SDS011;58643;49.052;8.518;2022-09-09T15:39:25;2.42;;;1.00;;
37341;SDS011;58643;49.052;8.518;2022-09-09T15:41:50;9.32;;;1.05;;
37341;SDS011;58643;49.052;8.518;2022-09-09T15:44:16;2.75;;;1.00;;
37341;SDS011;58643;49.052;8.518;2022-09-09T15:49:25;3.85;;;0.90;;
37341;SDS011;58643;49.052;8.518;2022-09-09T15:51:54;3.20;;;0.90;;
37341;SDS011;58643;49.052;8.518;2022-09-09T15:54:23;6.05;;;0.80;;
37341;SDS011;58643;49.052;8.518;2022-09-09T15:56:51;3.35;;;0.82;;
37341;SDS011;58643;49.052;8.518;2022-09-09T15:59:20;4.30;;;0.90;;
37341;SDS011;58643;49.052;8.518;2022-09-09T16:01:46;5.63;;;1.00;;
37341;SDS011;58643;49.052;8.518;2022-09-09T16:04:16;2.97;;;0.85;;
37341;SDS011;58643;49.052;8.518;2022-09-09T16:06:48;5.70;;;0.98;;
37341;SDS011;58643;49.052;8.518;2022-09-09T16:09:30;5.88;;;1.10;;
37341;SDS011;58643;49.052;8.518;2022-09-09T16:11:57;2.80;;;0.77;;
37341;SDS011;58643;49.052;8.518;2022-09-09T16:14:25;3.78;;;0.73;;
37341;SDS011;58643;49.052;8.518;2022-09-09T16:16:51;5.68;;;0.98;;
37341;SDS011;58643;49.052;8.518;2022-09-09T16:19:17;7.57;;;1.23;;
37341;SDS011;58643;49.052;8.518;2022-09-09T16:21:44;5.50;;;0.90;;
37341;SDS011;58643;49.052;8.518;2022-09-09T16:24:12;6.82;;;0.70;;
37341;SDS011;58643;49.052;8.518;2022-09-09T16:26:41;1.90;;;0.77;;
37341;SDS011;58643;49.052;8.518;2022-09-09T16:29:10;4.38;;;0.88;;
37341;SDS011;58643;49.052;8.518;2022-09-09T16:31:36;4.65;;;0.80;;
37341;SDS011;58643;49.052;8.518;2022-09-09T16:34:02;2.35;;;0.88;;
37341;SDS011;58643;49.052;8.518;2022-09-09T16:36:29;6.05;;;0.82;;
37341;SDS011;58643;49.052;8.518;2022-09-09T16:38:57;5.75;;;0.80;;
37341;SDS011;58643;49.052;8.518;2022-09-09T16:41:25;3.05;;;0.55;;
37341;SDS011;58643;49.052;8.518;2022-09-09T16:43:53;5.32;;;0.77;;
37341;SDS011;58643;49.052;8.518;2022-09-09T16:46:21;7.38;;;1.10;;
37341;SDS011;58643;49.052;8.518;2022-09-09T16:48:47;7.30;;;1.27;;
37341;SDS011;58643;49.052;8.518;2022-09-09T16:51:17;3.72;;;1.30;;
37341;SDS011;58643;49.052;8.518;2022-09-09T16:53:44;6.10;;;1.02;;
37341;SDS011;58643;49.052;8.518;2022-09-09T16:56:11;5.22;;;1.38;;
37341;SDS011;58643;49.052;8.518;2022-09-09T16:58:38;1.65;;;0.80;;
37341;SDS011;58643;49.052;8.518;2022-09-09T17:01:04;4.20;;;0.80;;
37341;SDS011;58643;49.052;8.518;2022-09-09T17:03:31;5.00;;;0.93;;
37341;SDS011;58643;49.052;8.518;2022-09-09T17:05:57;5.20;;;1.10;;
37341;SDS011;58643;49.052;8.518;2022-09-09T17:10:54;7.60;;;1.35;;
37341;SDS011;58643;49.052;8.518;2022-09-09T17:13:19;5.00;;;1.08;;
37341;SDS011;58643;49.052;8.518;2022-09-09T17:15:45;4.72;;;1.02;;
37341;SDS011;58643;49.052;8.518;2022-09-09T17:18:11;5.15;;;1.00;;
37341;SDS011;58643;49.052;8.518;2022-09-09T17:20:38;3.20;;;0.90;;
37341;SDS011;58643;49.052;8.518;2022-09-09T17:23:05;4.43;;;1.05;;
37341;SDS011;58643;49.052;8.518;2022-09-09T17:25:32;4.47;;;1.35;;
37341;SDS011;58643;49.052;8.518;2022-09-09T17:27:58;4.85;;;1.30;;